Weather History for Vernon, TX

Change the Weather History Date:

Wednesday, August 1, 2012

  Actual Average (KLTS) Record (KLTS)
Temperature  
Mean Temperature 94 °F -  
Max Temperature 111 °F 95 °F 111 °F (2012)
Min Temperature 78 °F 71 °F 62 °F (2005)
Cooling Degree Days 30    
Growing Degree Days 44 (Base 50)    
Moisture  
Dew Point 51 °F    
Average Humidity 23    
Maximum Humidity 44    
Minimum Humidity 12    
Precipitation  
Precipitation 0.00 in - - ()
Sea Level Pressure  
Sea Level Pressure 29.87 in    
Wind  
Wind Speed 7 mph (SSW)    
Max Wind Speed 18 mph    
Max Gust Speed 23 mph    
Visibility 10 miles    
Events      
Averages and records for this station are not official NWS values.
T = Trace of Precipitation, MM = Missing Value Source: NWS Daily Summary

Daily Weather History Graph

Daily Weather History Graph

Search for Another Location

Airport:

Trip Planner

Search our weather history database for the weather conditions in past years. The results will help you decide how hot, cold, wet, or windy it might be!

Date:

Astronomy

Aug. 01, 2012 Rise Set
Actual Time 6:48 AM CDT 8:37 PM CDT
Civil Twilight 6:21 AM CDT 9:05 PM CDT
Nautical Twilight 5:47 AM CDT 9:38 PM CDT
Astronomical Twilight 5:12 AM CDT 10:13 PM CDT
Moon 8:12 PM CDT (8/1) 6:18 AM CDT (8/1)
Length of Visible Light 14h 44m
Length of Day
13h 49m
Full, 100% of the Moon is Illuminated
Aug 1
Full
Aug 1
Full
Aug 9
Last Quarter
Aug 17
New
Aug 24
First Quarter

Hourly Weather History & Observations

Time (CDT) Temp. Heat Index Dew Point Humidity Pressure Visibility Wind Dir Wind Speed Gust Speed Precip Events Conditions
12:15 AM 92.3 °F - 51.3 °F 25% 29.91 in 10.0 mi SSE 11.5 mph - N/A   Clear
12:35 AM 92.3 °F - 52.3 °F 26% 29.90 in 10.0 mi SSE 10.4 mph - N/A   Clear
1:15 AM 91.6 °F 89.3 °F 54.1 °F 28% 29.90 in 10.0 mi South 10.4 mph - N/A   Clear
1:35 AM 91.4 °F 89.4 °F 54.5 °F 29% 29.90 in 10.0 mi South 10.4 mph - N/A   Clear
1:55 AM 90.7 °F 88.5 °F 54.5 °F 29% 29.90 in 10.0 mi South 8.1 mph - N/A   Clear
2:15 AM 90.1 °F 88.1 °F 54.5 °F 30% 29.91 in 10.0 mi Calm Calm - N/A   Clear
2:35 AM 88.9 °F 86.9 °F 54.5 °F 31% 29.90 in 10.0 mi Calm Calm - N/A   Clear
2:55 AM 87.1 °F 85.3 °F 54.5 °F 33% 29.90 in 10.0 mi Calm Calm - N/A   Clear
3:15 AM 86.9 °F 85.1 °F 54.5 °F 33% 29.90 in 10.0 mi South 6.9 mph - N/A   Clear
3:35 AM 86.9 °F 85.1 °F 54.5 °F 33% 29.90 in 10.0 mi South 9.2 mph - N/A   Clear
3:55 AM 86.4 °F 84.7 °F 54.5 °F 34% 29.89 in 10.0 mi South 9.2 mph - N/A   Clear
4:15 AM 85.8 °F 84.2 °F 54.5 °F 34% 29.90 in 10.0 mi Calm Calm - N/A   Clear
4:35 AM 84.2 °F 82.9 °F 54.9 °F 36% 29.89 in 10.0 mi Calm Calm - N/A   Clear
4:55 AM 82.8 °F 81.9 °F 55.0 °F 38% 29.90 in 10.0 mi Calm Calm - N/A   Clear
5:15 AM 81.7 °F 81.1 °F 54.7 °F 39% 29.90 in 10.0 mi Calm Calm - N/A   Clear
5:35 AM 80.6 °F 80.4 °F 54.5 °F 40% 29.89 in 10.0 mi Calm Calm - N/A   Clear
5:55 AM 80.2 °F 80.2 °F 54.9 °F 41% 29.89 in 10.0 mi Calm Calm - N/A   Clear
6:15 AM 80.1 °F 80.1 °F 54.9 °F 42% 29.89 in 10.0 mi Calm Calm - N/A   Clear
6:35 AM 79.5 °F - 54.7 °F 42% 29.90 in 10.0 mi Calm Calm - N/A   Clear
6:55 AM 78.8 °F - 54.9 °F 44% 29.90 in 10.0 mi Calm Calm - N/A   Clear
7:15 AM 78.4 °F - 54.9 °F 44% 29.91 in 10.0 mi Calm Calm - N/A   Clear
7:35 AM 79.2 °F - 55.4 °F 44% 29.91 in 10.0 mi Calm Calm - N/A   Clear
7:55 AM 81.3 °F 81.0 °F 55.4 °F 41% 29.92 in 10.0 mi Calm Calm - N/A   Clear
8:15 AM 83.5 °F 82.5 °F 55.2 °F 38% 29.92 in 10.0 mi SW 9.2 mph - N/A   Clear
8:35 AM 85.5 °F 84.0 °F 54.5 °F 35% 29.93 in 10.0 mi SW 11.5 mph - N/A   Clear
8:55 AM 88.0 °F 85.9 °F 54.1 °F 31% 29.93 in 10.0 mi SW 12.7 mph - N/A   Clear
9:15 AM 90.5 °F 88.3 °F 54.0 °F 29% 29.93 in 10.0 mi SW 11.5 mph - N/A   Unknown
9:35 AM 93.6 °F - 52.7 °F 25% 29.93 in 10.0 mi WSW 12.7 mph - N/A   Clear
9:55 AM 96.6 °F - 52.0 °F 22% 29.93 in 10.0 mi West 15.0 mph - N/A   Clear
10:15 AM 99.1 °F - 51.6 °F 20% 29.92 in 10.0 mi West 18.4 mph 23.0 mph N/A   Clear
10:35 AM 100.6 °F - 51.6 °F 19% 29.93 in 10.0 mi West 17.3 mph 21.9 mph N/A   Clear
10:55 AM 102.0 °F - 51.4 °F 18% 29.93 in 10.0 mi West 12.7 mph 21.9 mph N/A   Clear
11:15 AM 102.6 °F - 51.3 °F 18% 29.92 in 10.0 mi West 16.1 mph 20.7 mph N/A   Clear
11:35 AM 103.8 °F - 51.4 °F 17% 29.92 in 10.0 mi West 12.7 mph 17.3 mph N/A   Clear
11:55 AM 104.4 °F - 51.3 °F 17% 29.91 in 10.0 mi WNW 11.5 mph 17.3 mph N/A   Clear
12:15 PM 105.4 °F - 51.1 °F 16% 29.91 in 10.0 mi West 9.2 mph 16.1 mph N/A   Clear
12:35 PM 106.2 °F - 49.8 °F 15% 29.91 in 10.0 mi NNW 4.6 mph - N/A   Clear
1:15 PM 107.2 °F - 48.6 °F 14% 29.89 in 10.0 mi Calm Calm - N/A   Clear
1:35 PM 108.7 °F - 48.4 °F 13% 29.88 in 10.0 mi Calm Calm - N/A   Clear
1:55 PM 109.4 °F - 48.0 °F 13% 29.88 in 10.0 mi WNW 8.1 mph - N/A   Clear
2:15 PM 109.6 °F - 47.1 °F 12% 29.87 in 10.0 mi WSW 6.9 mph - N/A   Clear
2:35 PM 109.8 °F - 47.3 °F 12% 29.86 in 10.0 mi ENE 4.6 mph - N/A   Clear
2:55 PM 110.8 °F - 47.3 °F 12% 29.85 in 10.0 mi SE 3.5 mph - N/A   Clear
3:15 PM 111.4 °F - 47.1 °F 12% 29.85 in 10.0 mi SSE 10.4 mph - N/A   Clear
3:35 PM 111.2 °F - 47.1 °F 12% 29.84 in 10.0 mi ESE 6.9 mph 16.1 mph N/A   Clear
3:55 PM 111.0 °F - 47.1 °F 12% 29.84 in 10.0 mi Calm Calm - N/A   Clear
4:15 PM 111.0 °F - 47.5 °F 12% 29.83 in 10.0 mi SSW 4.6 mph - N/A   Clear
4:35 PM 111.4 °F - 47.5 °F 12% 29.82 in 10.0 mi Calm Calm - N/A   Clear
4:55 PM 111.9 °F - 47.8 °F 12% 29.82 in 10.0 mi WSW 9.2 mph - N/A   Clear
5:15 PM 111.9 °F - 48.0 °F 12% 29.81 in 10.0 mi South 3.5 mph - N/A   Clear
5:35 PM 111.6 °F - 48.2 °F 12% 29.81 in 10.0 mi South 9.2 mph 18.4 mph N/A   Clear
5:55 PM 111.6 °F - 48.2 °F 12% 29.80 in 10.0 mi SSE 3.5 mph - N/A   Clear
6:15 PM 111.2 °F - 47.7 °F 12% 29.79 in 10.0 mi Calm Calm - N/A   Clear
6:35 PM 111.6 °F - 47.1 °F 12% 29.79 in 10.0 mi SSW 9.2 mph - N/A   Clear
6:55 PM 111.0 °F - 47.8 °F 12% 29.78 in 10.0 mi South 13.8 mph 17.3 mph N/A   Clear
7:15 PM 110.3 °F - 47.7 °F 12% 29.78 in 10.0 mi South 15.0 mph - N/A   Clear
7:35 PM 109.9 °F - 47.3 °F 12% 29.78 in 10.0 mi South 11.5 mph 17.3 mph N/A   Clear
7:55 PM 108.9 °F - 47.1 °F 13% 29.79 in 10.0 mi SSW 11.5 mph - N/A   Clear
8:15 PM 107.4 °F - 46.9 °F 13% 29.79 in 10.0 mi South 9.2 mph - N/A   Clear
8:35 PM 104.9 °F - 47.3 °F 14% 29.79 in 10.0 mi South 8.1 mph - N/A   Clear
8:55 PM - - - N/A% 29.78 in 10.0 mi South 8.1 mph - N/A   Unknown
9:15 PM 100.0 °F - 48.6 °F 17% 29.79 in 10.0 mi South 8.1 mph - N/A   Clear
9:35 PM 98.6 °F - 49.1 °F 19% 29.79 in 10.0 mi South 8.1 mph - N/A   Clear
9:55 PM 97.9 °F - 49.6 °F 19% 29.79 in 10.0 mi South 8.1 mph - N/A   Clear
10:15 PM 96.4 °F - 50.2 °F 21% 29.80 in 10.0 mi Calm Calm - N/A   Clear
10:35 PM 95.2 °F - 50.2 °F 22% 29.80 in 10.0 mi SSE 3.5 mph - N/A   Clear
10:55 PM 94.1 °F - 50.5 °F 23% 29.81 in 10.0 mi SSE 9.2 mph - N/A   Clear
11:35 PM 94.1 °F - 51.4 °F 23% 29.81 in 10.0 mi South 12.7 mph - N/A   Clear
11:55 PM 95.5 °F - 52.3 °F 23% 29.81 in 10.0 mi South 12.7 mph - N/A   Clear